sensor_id;sensor_type;location;lat;lon;timestamp;pressure;altitude;pressure_sealevel;temperature;humidity
53041;BME280;39326;42.650;23.248;2023-05-11T00:01:26;92698.97;;;8.60;84.31
53041;BME280;39326;42.650;23.248;2023-05-11T00:03:51;92695.16;;;8.58;83.99
53041;BME280;39326;42.650;23.248;2023-05-11T00:06:17;92703.47;;;8.56;83.82
53041;BME280;39326;42.650;23.248;2023-05-11T00:08:42;92699.72;;;8.57;84.20
53041;BME280;39326;42.650;23.248;2023-05-11T00:11:07;92700.75;;;8.49;85.12
53041;BME280;39326;42.650;23.248;2023-05-11T00:13:33;92692.25;;;8.36;85.21
53041;BME280;39326;42.650;23.248;2023-05-11T00:15:58;92705.16;;;8.38;84.70
53041;BME280;39326;42.650;23.248;2023-05-11T00:18:24;92704.84;;;8.39;85.00
53041;BME280;39326;42.650;23.248;2023-05-11T00:20:49;92703.97;;;8.32;85.43
53041;BME280;39326;42.650;23.248;2023-05-11T00:23:15;92698.66;;;8.32;84.92
53041;BME280;39326;42.650;23.248;2023-05-11T00:25:40;92692.16;;;8.26;85.27
53041;BME280;39326;42.650;23.248;2023-05-11T00:28:06;92702.13;;;8.36;85.18
53041;BME280;39326;42.650;23.248;2023-05-11T00:30:32;92705.16;;;8.38;85.19
53041;BME280;39326;42.650;23.248;2023-05-11T00:32:57;92700.22;;;8.33;85.11
53041;BME280;39326;42.650;23.248;2023-05-11T00:35:23;92702.88;;;8.36;85.23
53041;BME280;39326;42.650;23.248;2023-05-11T00:37:48;92699.50;;;8.39;84.90
53041;BME280;39326;42.650;23.248;2023-05-11T00:40:14;92698.31;;;8.33;85.33
53041;BME280;39326;42.650;23.248;2023-05-11T00:42:39;92701.31;;;8.32;84.99
53041;BME280;39326;42.650;23.248;2023-05-11T00:45:05;92706.28;;;8.33;84.98
53041;BME280;39326;42.650;23.248;2023-05-11T00:47:31;92707.50;;;8.39;84.78
53041;BME280;39326;42.650;23.248;2023-05-11T00:49:57;92706.72;;;8.39;84.75
53041;BME280;39326;42.650;23.248;2023-05-11T00:52:22;92700.66;;;8.42;84.06
53041;BME280;39326;42.650;23.248;2023-05-11T00:54:48;92708.72;;;8.45;84.37
53041;BME280;39326;42.650;23.248;2023-05-11T00:57:15;92693.06;;;8.40;83.85
53041;BME280;39326;42.650;23.248;2023-05-11T00:59:40;92702.22;;;8.43;84.05
53041;BME280;39326;42.650;23.248;2023-05-11T01:02:06;92709.47;;;8.46;84.04
53041;BME280;39326;42.650;23.248;2023-05-11T01:04:32;92700.66;;;8.42;83.98
53041;BME280;39326;42.650;23.248;2023-05-11T01:09:43;92702.56;;;8.41;85.17
53041;BME280;39326;42.650;23.248;2023-05-11T01:15:09;92704.41;;;8.37;85.28
53041;BME280;39326;42.650;23.248;2023-05-11T01:17:53;92706.31;;;8.37;85.25
53041;BME280;39326;42.650;23.248;2023-05-11T01:20:25;92704.84;;;8.39;84.94
53041;BME280;39326;42.650;23.248;2023-05-11T01:29:00;92703.38;;;8.12;84.95
53041;BME280;39326;42.650;23.248;2023-05-11T01:31:32;92707.56;;;8.13;85.46
53041;BME280;39326;42.650;23.248;2023-05-11T01:34:04;92709.19;;;8.21;84.92
53041;BME280;39326;42.650;23.248;2023-05-11T01:36:38;92707.31;;;8.25;84.58
53041;BME280;39326;42.650;23.248;2023-05-11T01:39:08;92710.78;;;8.29;83.93
53041;BME280;39326;42.650;23.248;2023-05-11T01:41:36;92712.56;;;8.18;84.24
53041;BME280;39326;42.650;23.248;2023-05-11T01:44:05;92714.81;;;8.16;84.37
53041;BME280;39326;42.650;23.248;2023-05-11T01:46:32;92709.81;;;8.11;84.71
53041;BME280;39326;42.650;23.248;2023-05-11T01:49:00;92710.22;;;8.13;84.84
53041;BME280;39326;42.650;23.248;2023-05-11T01:51:29;92711.84;;;8.21;84.01
53041;BME280;39326;42.650;23.248;2023-05-11T01:53:58;92702.69;;;8.18;84.86
53041;BME280;39326;42.650;23.248;2023-05-11T01:56:25;92708.44;;;8.20;84.69
53041;BME280;39326;42.650;23.248;2023-05-11T01:58:53;92710.66;;;8.18;85.04
53041;BME280;39326;42.650;23.248;2023-05-11T02:01:19;92711.44;;;8.19;85.02
53041;BME280;39326;42.650;23.248;2023-05-11T02:03:46;92703.00;;;8.10;84.70
53041;BME280;39326;42.650;23.248;2023-05-11T02:06:15;92713.63;;;8.10;85.28
53041;BME280;39326;42.650;23.248;2023-05-11T02:08:43;92700.63;;;8.01;85.46
53041;BME280;39326;42.650;23.248;2023-05-11T02:11:10;92700.13;;;7.92;85.92
53041;BME280;39326;42.650;23.248;2023-05-11T02:13:37;92699.41;;;7.95;85.57
53041;BME280;39326;42.650;23.248;2023-05-11T02:16:06;92703.50;;;7.89;85.49
53041;BME280;39326;42.650;23.248;2023-05-11T02:18:33;92696.94;;;7.79;85.39
53041;BME280;39326;42.650;23.248;2023-05-11T02:21:00;92692.03;;;7.81;85.38
53041;BME280;39326;42.650;23.248;2023-05-11T02:23:29;92692.91;;;7.92;84.89
53041;BME280;39326;42.650;23.248;2023-05-11T02:25:55;92702.34;;;7.86;84.86
53041;BME280;39326;42.650;23.248;2023-05-11T02:28:21;92691.25;;;7.81;85.08
53041;BME280;39326;42.650;23.248;2023-05-11T02:30:49;92696.94;;;7.79;84.78
53041;BME280;39326;42.650;23.248;2023-05-11T02:33:30;92692.91;;;7.89;84.99
53041;BME280;39326;42.650;23.248;2023-05-11T02:35:58;92694.09;;;7.95;84.58
53041;BME280;39326;42.650;23.248;2023-05-11T02:38:29;92696.38;;;7.97;84.26
53041;BME280;39326;42.650;23.248;2023-05-11T02:40:57;92693.97;;;7.84;84.97
53041;BME280;39326;42.650;23.248;2023-05-11T02:43:29;92693.97;;;7.84;84.21
53041;BME280;39326;42.650;23.248;2023-05-11T02:46:01;92697.44;;;7.88;84.31
53041;BME280;39326;42.650;23.248;2023-05-11T02:48:29;92697.78;;;7.87;84.27
53041;BME280;39326;42.650;23.248;2023-05-11T02:50:55;92692.44;;;7.83;84.51
53041;BME280;39326;42.650;23.248;2023-05-11T02:53:26;92692.13;;;7.88;84.27
53041;BME280;39326;42.650;23.248;2023-05-11T02:55:53;92690.50;;;7.80;84.48
53041;BME280;39326;42.650;23.248;2023-05-11T02:58:19;92689.44;;;7.85;84.46
53041;BME280;39326;42.650;23.248;2023-05-11T03:00:45;92689.88;;;7.90;83.75
53041;BME280;39326;42.650;23.248;2023-05-11T03:03:10;92690.63;;;7.91;83.90
53041;BME280;39326;42.650;23.248;2023-05-11T03:05:36;92694.44;;;7.93;83.65
53041;BME280;39326;42.650;23.248;2023-05-11T03:08:02;92691.09;;;7.97;82.69
53041;BME280;39326;42.650;23.248;2023-05-11T03:10:27;92696.00;;;7.95;82.98
53041;BME280;39326;42.650;23.248;2023-05-11T03:12:54;92696.38;;;7.97;82.97
53041;BME280;39326;42.650;23.248;2023-05-11T03:15:20;92702.09;;;7.99;83.17
53041;BME280;39326;42.650;23.248;2023-05-11T03:17:47;92699.06;;;7.97;83.15
53041;BME280;39326;42.650;23.248;2023-05-11T03:20:14;92700.88;;;7.89;83.16
53041;BME280;39326;42.650;23.248;2023-05-11T03:22:41;92706.13;;;7.85;83.10
53041;BME280;39326;42.650;23.248;2023-05-11T03:25:07;92706.13;;;7.85;82.20
53041;BME280;39326;42.650;23.248;2023-05-11T03:27:34;92698.78;;;7.75;82.54
53041;BME280;39326;42.650;23.248;2023-05-11T03:30:02;92703.47;;;7.85;81.87
53041;BME280;39326;42.650;23.248;2023-05-11T03:32:27;92707.09;;;7.70;82.31
53041;BME280;39326;42.650;23.248;2023-05-11T03:34:53;92709.22;;;7.61;81.33
53041;BME280;39326;42.650;23.248;2023-05-11T03:37:19;92703.22;;;7.64;81.88
53041;BME280;39326;42.650;23.248;2023-05-11T03:39:46;92708.47;;;7.60;81.36
53041;BME280;39326;42.650;23.248;2023-05-11T03:42:13;92712.78;;;7.72;80.67
53041;BME280;39326;42.650;23.248;2023-05-11T03:44:41;92713.59;;;7.76;80.59
53041;BME280;39326;42.650;23.248;2023-05-11T03:47:09;92704.06;;;7.72;81.06
53041;BME280;39326;42.650;23.248;2023-05-11T03:49:37;92710.59;;;7.81;80.50
53041;BME280;39326;42.650;23.248;2023-05-11T03:52:04;92711.28;;;7.75;81.28
53041;BME280;39326;42.650;23.248;2023-05-11T03:54:30;92705.78;;;7.57;80.41
53041;BME280;39326;42.650;23.248;2023-05-11T03:56:56;92721.34;;;7.58;80.70
53041;BME280;39326;42.650;23.248;2023-05-11T03:59:21;92712.53;;;7.54;81.00
53041;BME280;39326;42.650;23.248;2023-05-11T04:01:47;92714.03;;;7.52;80.68
53041;BME280;39326;42.650;23.248;2023-05-11T04:04:17;92720.72;;;7.42;80.97
53041;BME280;39326;42.650;23.248;2023-05-11T04:06:43;92714.09;;;7.29;80.76
53041;BME280;39326;42.650;23.248;2023-05-11T04:09:08;92726.66;;;7.32;80.17
53041;BME280;39326;42.650;23.248;2023-05-11T04:11:37;92727.34;;;7.29;80.80
53041;BME280;39326;42.650;23.248;2023-05-11T04:14:02;92726.28;;;7.33;80.72
53041;BME280;39326;42.650;23.248;2023-05-11T04:16:28;92728.84;;;7.53;79.92
53041;BME280;39326;42.650;23.248;2023-05-11T04:18:54;92726.19;;;7.53;80.00
53041;BME280;39326;42.650;23.248;2023-05-11T04:21:19;92724.50;;;7.41;80.81
53041;BME280;39326;42.650;23.248;2023-05-11T04:23:44;92730.56;;;7.42;80.12
53041;BME280;39326;42.650;23.248;2023-05-11T04:26:10;92732.56;;;7.48;80.25
53041;BME280;39326;42.650;23.248;2023-05-11T04:28:35;92735.38;;;7.32;81.00
53041;BME280;39326;42.650;23.248;2023-05-11T04:31:01;92721.84;;;7.15;80.77
53041;BME280;39326;42.650;23.248;2023-05-11T04:33:26;92733.03;;;7.27;80.59
53041;BME280;39326;42.650;23.248;2023-05-11T04:35:54;92694.59;;;6.91;80.79
53041;BME280;39326;42.650;23.248;2023-05-11T04:38:21;92738.63;;;6.99;81.88
53041;BME280;39326;42.650;23.248;2023-05-11T04:40:47;92735.59;;;6.97;82.15
53041;BME280;39326;42.650;23.248;2023-05-11T04:43:16;92739.06;;;7.01;81.93
53041;BME280;39326;42.650;23.248;2023-05-11T04:45:50;92739.00;;;6.98;81.72
53041;BME280;39326;42.650;23.248;2023-05-11T04:48:16;92740.53;;;6.99;81.59
53041;BME280;39326;42.650;23.248;2023-05-11T04:50:42;92743.63;;;7.01;81.95
53041;BME280;39326;42.650;23.248;2023-05-11T04:53:08;92747.97;;;7.13;81.43
53041;BME280;39326;42.650;23.248;2023-05-11T04:55:33;92738.41;;;7.08;82.06
53041;BME280;39326;42.650;23.248;2023-05-11T04:57:59;92748.91;;;7.01;82.39
53041;BME280;39326;42.650;23.248;2023-05-11T05:00:24;92750.00;;;7.00;82.53
53041;BME280;39326;42.650;23.248;2023-05-11T05:02:50;92753.13;;;7.05;82.04
53041;BME280;39326;42.650;23.248;2023-05-11T05:05:16;92753.66;;;7.15;82.71
53041;BME280;39326;42.650;23.248;2023-05-11T05:07:41;92756.44;;;7.22;81.88
53041;BME280;39326;42.650;23.248;2023-05-11T05:10:07;92764.59;;;7.36;82.00
53041;BME280;39326;42.650;23.248;2023-05-11T05:12:34;92759.78;;;7.19;82.62
53041;BME280;39326;42.650;23.248;2023-05-11T05:15:00;92765.97;;;7.26;82.38
53041;BME280;39326;42.650;23.248;2023-05-11T05:17:26;92767.50;;;7.27;81.86
53041;BME280;39326;42.650;23.248;2023-05-11T05:19:51;92763.31;;;7.26;82.64
53041;BME280;39326;42.650;23.248;2023-05-11T05:22:17;92765.56;;;7.24;82.20
53041;BME280;39326;42.650;23.248;2023-05-11T05:24:42;92767.41;;;7.20;82.53
53041;BME280;39326;42.650;23.248;2023-05-11T05:27:07;92760.41;;;7.35;82.13
53041;BME280;39326;42.650;23.248;2023-05-11T05:29:33;92764.13;;;7.30;82.10
53041;BME280;39326;42.650;23.248;2023-05-11T05:31:58;92764.38;;;7.22;83.33
53041;BME280;39326;42.650;23.248;2023-05-11T05:34:24;92762.59;;;7.29;83.39
53041;BME280;39326;42.650;23.248;2023-05-11T05:36:49;92763.03;;;7.31;83.44
53041;BME280;39326;42.650;23.248;2023-05-11T05:39:15;92757.84;;;7.42;82.94
53041;BME280;39326;42.650;23.248;2023-05-11T05:41:40;92761.38;;;7.50;82.14
53041;BME280;39326;42.650;23.248;2023-05-11T05:44:06;92763.72;;;7.55;82.04
53041;BME280;39326;42.650;23.248;2023-05-11T05:46:32;92766.19;;;7.41;81.91
53041;BME280;39326;42.650;23.248;2023-05-11T05:48:57;92771.09;;;7.65;80.68
53041;BME280;39326;42.650;23.248;2023-05-11T05:51:23;92778.06;;;7.77;80.65
53041;BME280;39326;42.650;23.248;2023-05-11T05:53:48;92770.22;;;7.87;80.71
53041;BME280;39326;42.650;23.248;2023-05-11T05:56:14;92774.03;;;7.86;80.38
53041;BME280;39326;42.650;23.248;2023-05-11T05:58:40;92771.19;;;8.02;78.81
53041;BME280;39326;42.650;23.248;2023-05-11T06:01:05;92764.69;;;8.00;78.49
53041;BME280;39326;42.650;23.248;2023-05-11T06:03:31;92773.56;;;7.81;78.43
53041;BME280;39326;42.650;23.248;2023-05-11T06:05:56;92771.88;;;7.96;78.73
53041;BME280;39326;42.650;23.248;2023-05-11T06:08:21;92782.91;;;7.98;79.59
53041;BME280;39326;42.650;23.248;2023-05-11T06:10:47;92779.63;;;7.81;79.29
53041;BME280;39326;42.650;23.248;2023-05-11T06:13:12;92786.59;;;7.89;78.90
53041;BME280;39326;42.650;23.248;2023-05-11T06:15:38;92787.53;;;8.04;78.42
53041;BME280;39326;42.650;23.248;2023-05-11T06:18:03;92790.03;;;7.93;78.38
53041;BME280;39326;42.650;23.248;2023-05-11T06:20:30;92789.34;;;7.97;78.52
53041;BME280;39326;42.650;23.248;2023-05-11T06:22:55;92786.09;;;8.10;78.64
53041;BME280;39326;42.650;23.248;2023-05-11T06:25:21;92794.88;;;8.14;78.18
53041;BME280;39326;42.650;23.248;2023-05-11T06:27:46;92792.63;;;8.16;78.21
53041;BME280;39326;42.650;23.248;2023-05-11T06:30:12;92798.44;;;7.96;77.82
53041;BME280;39326;42.650;23.248;2023-05-11T06:32:37;92794.94;;;7.88;79.12
53041;BME280;39326;42.650;23.248;2023-05-11T06:35:03;92796.59;;;7.73;78.77
53041;BME280;39326;42.650;23.248;2023-05-11T06:37:29;92804.63;;;7.77;78.73
53041;BME280;39326;42.650;23.248;2023-05-11T06:39:54;92798.19;;;7.78;78.37
53041;BME280;39326;42.650;23.248;2023-05-11T06:42:20;92800.44;;;7.76;78.95
53041;BME280;39326;42.650;23.248;2023-05-11T06:44:47;92804.97;;;7.75;79.73
53041;BME280;39326;42.650;23.248;2023-05-11T06:47:13;92798.78;;;7.94;78.73
53041;BME280;39326;42.650;23.248;2023-05-11T06:49:40;92798.69;;;8.17;78.33
53041;BME280;39326;42.650;23.248;2023-05-11T06:52:05;92793.16;;;8.29;78.25
53041;BME280;39326;42.650;23.248;2023-05-11T06:54:31;92797.03;;;8.35;77.99
53041;BME280;39326;42.650;23.248;2023-05-11T06:56:56;92795.88;;;8.36;77.37
53041;BME280;39326;42.650;23.248;2023-05-11T06:59:22;92792.25;;;8.18;76.83
53041;BME280;39326;42.650;23.248;2023-05-11T07:01:47;92801.63;;;8.38;77.16
53041;BME280;39326;42.650;23.248;2023-05-11T07:04:12;92801.00;;;8.49;77.22
53041;BME280;39326;42.650;23.248;2023-05-11T07:06:38;92793.59;;;8.65;77.52
53041;BME280;39326;42.650;23.248;2023-05-11T07:09:03;92802.47;;;8.80;77.08
53041;BME280;39326;42.650;23.248;2023-05-11T07:11:29;92799.84;;;8.83;76.39
53041;BME280;39326;42.650;23.248;2023-05-11T07:13:55;92800.94;;;8.79;76.57
53041;BME280;39326;42.650;23.248;2023-05-11T07:16:20;92807.09;;;8.86;76.39
53041;BME280;39326;42.650;23.248;2023-05-11T07:18:47;92796.00;;;8.77;76.59
53041;BME280;39326;42.650;23.248;2023-05-11T07:21:12;92803.28;;;8.87;76.17
53041;BME280;39326;42.650;23.248;2023-05-11T07:23:38;92803.75;;;8.93;75.74
53041;BME280;39326;42.650;23.248;2023-05-11T07:26:03;92813.19;;;8.87;75.76
53041;BME280;39326;42.650;23.248;2023-05-11T07:28:35;92804.09;;;8.91;75.65
53041;BME280;39326;42.650;23.248;2023-05-11T07:31:01;92803.03;;;8.96;75.12
53041;BME280;39326;42.650;23.248;2023-05-11T07:33:26;92809.94;;;9.04;75.42
53041;BME280;39326;42.650;23.248;2023-05-11T07:35:52;92809.63;;;9.13;74.83
53041;BME280;39326;42.650;23.248;2023-05-11T07:38:17;92810.59;;;9.35;74.22
53041;BME280;39326;42.650;23.248;2023-05-11T07:40:42;92813.25;;;9.38;75.02
53041;BME280;39326;42.650;23.248;2023-05-11T07:43:08;92804.09;;;9.32;74.69
53041;BME280;39326;42.650;23.248;2023-05-11T07:45:33;92821.19;;;9.31;74.04
53041;BME280;39326;42.650;23.248;2023-05-11T07:47:59;92813.59;;;8.89;74.06
53041;BME280;39326;42.650;23.248;2023-05-11T07:50:24;92814.50;;;9.07;74.69
53041;BME280;39326;42.650;23.248;2023-05-11T07:52:50;92811.66;;;9.26;74.33
53041;BME280;39326;42.650;23.248;2023-05-11T07:55:15;92819.72;;;9.37;74.14
53041;BME280;39326;42.650;23.248;2023-05-11T07:57:41;92822.31;;;9.26;73.84
53041;BME280;39326;42.650;23.248;2023-05-11T08:00:07;92817.75;;;9.27;73.50
53041;BME280;39326;42.650;23.248;2023-05-11T08:02:33;92819.06;;;9.47;73.75
53041;BME280;39326;42.650;23.248;2023-05-11T08:04:58;92812.06;;;9.28;73.39
53041;BME280;39326;42.650;23.248;2023-05-11T08:07:24;92820.19;;;9.46;73.07
53041;BME280;39326;42.650;23.248;2023-05-11T08:09:49;92832.41;;;9.54;72.33
53041;BME280;39326;42.650;23.248;2023-05-11T08:12:15;92827.91;;;9.62;72.76
53041;BME280;39326;42.650;23.248;2023-05-11T08:14:40;92823.38;;;9.66;72.75
53041;BME280;39326;42.650;23.248;2023-05-11T08:17:07;92826.97;;;9.92;71.43
53041;BME280;39326;42.650;23.248;2023-05-11T08:19:32;92827.84;;;10.06;70.93
53041;BME280;39326;42.650;23.248;2023-05-11T08:21:59;92815.41;;;10.28;71.07
53041;BME280;39326;42.650;23.248;2023-05-11T08:24:25;92819.28;;;10.45;70.04
53041;BME280;39326;42.650;23.248;2023-05-11T08:26:50;92818.91;;;10.43;68.45
53041;BME280;39326;42.650;23.248;2023-05-11T08:29:16;92823.38;;;10.25;68.02
53041;BME280;39326;42.650;23.248;2023-05-11T08:31:41;92819.91;;;10.17;68.07
53041;BME280;39326;42.650;23.248;2023-05-11T08:34:07;92829.09;;;10.23;67.59
53041;BME280;39326;42.650;23.248;2023-05-11T08:36:34;92823.00;;;10.26;67.91
53041;BME280;39326;42.650;23.248;2023-05-11T08:38:59;92829.03;;;10.09;68.30
53041;BME280;39326;42.650;23.248;2023-05-11T08:41:25;92833.53;;;10.01;69.55
53041;BME280;39326;42.650;23.248;2023-05-11T08:43:51;92825.34;;;9.76;68.71
53041;BME280;39326;42.650;23.248;2023-05-11T08:46:22;92832.41;;;10.02;69.71
53041;BME280;39326;42.650;23.248;2023-05-11T08:48:48;92839.56;;;9.98;68.88
53041;BME280;39326;42.650;23.248;2023-05-11T08:51:17;92830.03;;;9.94;69.18
53041;BME280;39326;42.650;23.248;2023-05-11T08:53:42;92829.66;;;9.95;69.18
53041;BME280;39326;42.650;23.248;2023-05-11T08:56:08;92813.81;;;10.20;69.47
53041;BME280;39326;42.650;23.248;2023-05-11T08:58:35;92817.00;;;10.40;68.83
53041;BME280;39326;42.650;23.248;2023-05-11T09:01:02;92821.22;;;10.55;68.39
53041;BME280;39326;42.650;23.248;2023-05-11T09:03:29;92825.78;;;10.51;67.63
53041;BME280;39326;42.650;23.248;2023-05-11T09:05:54;92818.16;;;10.50;66.98
53041;BME280;39326;42.650;23.248;2023-05-11T09:08:21;92810.53;;;10.48;67.29
53041;BME280;39326;42.650;23.248;2023-05-11T09:10:48;92804.91;;;10.71;67.74
53041;BME280;39326;42.650;23.248;2023-05-11T09:13:14;92803.78;;;10.76;67.74
53041;BME280;39326;42.650;23.248;2023-05-11T09:15:40;92807.22;;;10.73;67.42
53041;BME280;39326;42.650;23.248;2023-05-11T09:18:05;92808.00;;;10.84;66.82
53041;BME280;39326;42.650;23.248;2023-05-11T09:20:32;92811.38;;;10.67;67.76
53041;BME280;39326;42.650;23.248;2023-05-11T09:22:58;92817.94;;;10.98;66.55
53041;BME280;39326;42.650;23.248;2023-05-11T09:25:25;92825.56;;;10.92;66.99
53041;BME280;39326;42.650;23.248;2023-05-11T09:27:51;92819.84;;;11.01;67.28
53041;BME280;39326;42.650;23.248;2023-05-11T09:30:18;92815.63;;;10.89;67.00
53041;BME280;39326;42.650;23.248;2023-05-11T09:32:46;92809.53;;;10.96;67.23
53041;BME280;39326;42.650;23.248;2023-05-11T09:35:32;92814.16;;;11.13;66.90
53041;BME280;39326;42.650;23.248;2023-05-11T09:40:24;92813.81;;;11.36;66.72
53041;BME280;39326;42.650;23.248;2023-05-11T09:42:49;92805.38;;;11.27;66.74
53041;BME280;39326;42.650;23.248;2023-05-11T09:45:42;92814.16;;;11.16;66.28
53041;BME280;39326;42.650;23.248;2023-05-11T09:50:59;92807.66;;;11.07;66.74
53041;BME280;39326;42.650;23.248;2023-05-11T09:55:59;92804.22;;;11.13;67.39
53041;BME280;39326;42.650;23.248;2023-05-11T09:58:25;92802.34;;;11.25;67.82
53041;BME280;39326;42.650;23.248;2023-05-11T10:00:51;92791.69;;;11.28;67.64
53041;BME280;39326;42.650;23.248;2023-05-11T10:03:18;92796.63;;;11.37;67.74
53041;BME280;39326;42.650;23.248;2023-05-11T10:06:02;92790.19;;;11.66;64.62
53041;BME280;39326;42.650;23.248;2023-05-11T10:08:29;92789.03;;;11.46;67.22
53041;BME280;39326;42.650;23.248;2023-05-11T10:10:56;92792.47;;;11.64;66.42
53041;BME280;39326;42.650;23.248;2023-05-11T10:13:22;92784.09;;;11.66;65.88
53041;BME280;39326;42.650;23.248;2023-05-11T10:15:50;92785.19;;;11.76;65.38
53041;BME280;39326;42.650;23.248;2023-05-11T10:18:16;92763.09;;;11.57;66.64
53041;BME280;39326;42.650;23.248;2023-05-11T10:20:43;92773.38;;;11.69;66.20
53041;BME280;39326;42.650;23.248;2023-05-11T10:23:10;92778.72;;;11.69;65.73
53041;BME280;39326;42.650;23.248;2023-05-11T10:25:36;92784.47;;;11.50;65.99
53041;BME280;39326;42.650;23.248;2023-05-11T10:28:02;92777.97;;;11.44;66.39
53041;BME280;39326;42.650;23.248;2023-05-11T10:30:28;92778.72;;;11.73;66.74
53041;BME280;39326;42.650;23.248;2023-05-11T10:32:54;92770.69;;;11.87;66.21
53041;BME280;39326;42.650;23.248;2023-05-11T10:35:20;92758.44;;;11.90;66.01
53041;BME280;39326;42.650;23.248;2023-05-11T10:37:46;92762.28;;;11.85;66.17
53041;BME280;39326;42.650;23.248;2023-05-11T10:40:12;92758.44;;;12.01;65.42
53041;BME280;39326;42.650;23.248;2023-05-11T10:48:12;92767.16;;;12.22;65.17
53041;BME280;39326;42.650;23.248;2023-05-11T10:53:52;92768.28;;;12.29;63.92
53041;BME280;39326;42.650;23.248;2023-05-11T11:01:41;92771.22;;;12.59;64.03
53041;BME280;39326;42.650;23.248;2023-05-11T11:04:09;92766.59;;;12.74;63.31
53041;BME280;39326;42.650;23.248;2023-05-11T11:06:36;92770.03;;;12.64;63.57
53041;BME280;39326;42.650;23.248;2023-05-11T11:09:07;92767.53;;;12.28;63.26
53041;BME280;39326;42.650;23.248;2023-05-11T11:11:40;92767.97;;;12.05;64.30
53041;BME280;39326;42.650;23.248;2023-05-11T11:14:09;92770.63;;;12.12;64.01
53041;BME280;39326;42.650;23.248;2023-05-11T11:16:35;92762.59;;;12.09;64.27
53041;BME280;39326;42.650;23.248;2023-05-11T11:21:59;92762.91;;;12.32;64.32
53041;BME280;39326;42.650;23.248;2023-05-11T11:27:06;92759.94;;;12.16;63.46
53041;BME280;39326;42.650;23.248;2023-05-11T11:29:36;92761.44;;;12.20;64.59
53041;BME280;39326;42.650;23.248;2023-05-11T11:32:28;92755.28;;;12.31;63.80
53041;BME280;39326;42.650;23.248;2023-05-11T11:34:53;92746.06;;;12.42;64.10
53041;BME280;39326;42.650;23.248;2023-05-11T11:37:19;92746.47;;;12.41;63.21
53041;BME280;39326;42.650;23.248;2023-05-11T11:39:47;92754.84;;;12.39;63.40
53041;BME280;39326;42.650;23.248;2023-05-11T11:42:16;92748.66;;;12.67;63.16
53041;BME280;39326;42.650;23.248;2023-05-11T11:44:42;92747.03;;;12.84;62.85
53041;BME280;39326;42.650;23.248;2023-05-11T11:47:21;92748.13;;;12.90;61.60
53041;BME280;39326;42.650;23.248;2023-05-11T11:49:50;92752.84;;;12.68;62.16
53041;BME280;39326;42.650;23.248;2023-05-11T11:55:02;92754.00;;;12.64;61.46
53041;BME280;39326;42.650;23.248;2023-05-11T12:00:00;92749.69;;;12.88;62.59
53041;BME280;39326;42.650;23.248;2023-05-11T12:02:26;92745.13;;;12.85;60.78
53041;BME280;39326;42.650;23.248;2023-05-11T12:07:45;92747.22;;;12.38;62.01
53041;BME280;39326;42.650;23.248;2023-05-11T12:10:12;92735.44;;;12.21;62.42
53041;BME280;39326;42.650;23.248;2023-05-11T12:12:38;92752.31;;;12.04;61.99
53041;BME280;39326;42.650;23.248;2023-05-11T12:15:05;92747.66;;;12.26;62.59
53041;BME280;39326;42.650;23.248;2023-05-11T12:17:31;92740.72;;;12.39;62.78
53041;BME280;39326;42.650;23.248;2023-05-11T12:20:12;92730.84;;;12.21;62.52
53041;BME280;39326;42.650;23.248;2023-05-11T12:22:38;92744.56;;;12.41;62.40
53041;BME280;39326;42.650;23.248;2023-05-11T12:25:05;92733.84;;;12.41;62.85
53041;BME280;39326;42.650;23.248;2023-05-11T12:27:31;92734.97;;;12.47;62.25
53041;BME280;39326;42.650;23.248;2023-05-11T12:29:56;92730.13;;;12.17;62.72
53041;BME280;39326;42.650;23.248;2023-05-11T12:32:26;92733.25;;;11.87;62.53
53041;BME280;39326;42.650;23.248;2023-05-11T12:35:00;92731.75;;;11.86;62.51
53041;BME280;39326;42.650;23.248;2023-05-11T12:37:26;92724.50;;;11.87;63.37
53041;BME280;39326;42.650;23.248;2023-05-11T12:39:53;92723.75;;;11.76;64.62
53041;BME280;39326;42.650;23.248;2023-05-11T12:42:20;92724.13;;;11.81;63.94
53041;BME280;39326;42.650;23.248;2023-05-11T12:44:45;92708.13;;;11.63;64.03
53041;BME280;39326;42.650;23.248;2023-05-11T12:47:11;92722.63;;;11.73;64.37
53041;BME280;39326;42.650;23.248;2023-05-11T12:49:37;92718.00;;;11.81;63.82
53041;BME280;39326;42.650;23.248;2023-05-11T12:52:04;92704.31;;;11.68;63.95
53041;BME280;39326;42.650;23.248;2023-05-11T12:54:38;92709.25;;;11.69;64.54
53041;BME280;39326;42.650;23.248;2023-05-11T12:57:07;92708.50;;;11.73;65.24
53041;BME280;39326;42.650;23.248;2023-05-11T12:59:37;92702.03;;;11.66;64.57
53041;BME280;39326;42.650;23.248;2023-05-11T13:02:15;92710.03;;;11.74;64.62
53041;BME280;39326;42.650;23.248;2023-05-11T13:04:42;92701.63;;;11.79;64.76
53041;BME280;39326;42.650;23.248;2023-05-11T13:07:08;92700.06;;;11.85;64.94
53041;BME280;39326;42.650;23.248;2023-05-11T13:09:34;92696.59;;;11.95;65.18
53041;BME280;39326;42.650;23.248;2023-05-11T13:14:37;92691.72;;;11.72;65.25
53041;BME280;39326;42.650;23.248;2023-05-11T13:17:04;92695.50;;;11.71;65.35
53041;BME280;39326;42.650;23.248;2023-05-11T13:19:30;92688.63;;;11.84;65.08
53041;BME280;39326;42.650;23.248;2023-05-11T13:21:57;92691.28;;;11.91;64.64
53041;BME280;39326;42.650;23.248;2023-05-11T13:24:24;92685.44;;;12.14;64.56
53041;BME280;39326;42.650;23.248;2023-05-11T13:26:50;92684.75;;;12.03;64.40
53041;BME280;39326;42.650;23.248;2023-05-11T13:29:16;92677.41;;;12.14;64.93
53041;BME280;39326;42.650;23.248;2023-05-11T13:31:46;92681.88;;;12.42;64.31
53041;BME280;39326;42.650;23.248;2023-05-11T13:34:12;92682.94;;;12.66;63.97
53041;BME280;39326;42.650;23.248;2023-05-11T13:36:38;92687.56;;;12.51;63.68
53041;BME280;39326;42.650;23.248;2023-05-11T13:39:03;92685.63;;;12.52;63.57
53041;BME280;39326;42.650;23.248;2023-05-11T13:41:29;92683.00;;;12.48;63.58
53041;BME280;39326;42.650;23.248;2023-05-11T13:43:54;92676.53;;;12.39;63.51
53041;BME280;39326;42.650;23.248;2023-05-11T13:46:20;92680.72;;;12.47;63.82